Nova Granada, Brazil
Current Conditions -  °F | °C
As of 8:00 PM on Saturday 25 Oct 2014 (Local Time) from SBSR Reporting Station
Drizzle Drizzle  
Wind Chill: 70°   Ceiling: 700
Heat Index: 70°   Visibility: 3mi
Dew Point: 66°   Wind: 0mph
Humidity: 88%   Direction: NA
Pressure: 30"   Gusts: NA
Location:  20.53°S, 49.31°W
Report Text: SBSR 252200Z 00000KT 5000 -DZ BR BKN007 OVC070 21/19 Q1016
Loading
Personal Weather Stations






























Interactive Weather Map
Tropical Storm Tracking
New forecast layout! Learn more

10-Day Weather Forecast

Advertisements
Track Severe Weather on mobile